Accueil
METAR-TAF:

METAR-TAF

Aéroports :

Base aérienne 120 Cazaux

Cazaux, France

latitude: 44-32N, longitude: 001-08W, altitude: 25 m

Observation

Le bulletin a été fait il y a 35 minutes, à 00:30 UTC
Vent 7 kt de ouest
Température 11°C
Humidité 76%
Pression 1015 hPa
Visibilité 10 km ou plus

METAR: LFBC 120030Z AUTO 28007KT 9999 FEW034/// SCT040/// BKN180/// ///TCU 11/07 Q1015

Heure: 02:05 (01:05 UTC)


TAF: absent

Observations et prévisions météorologiques de plus de 4000 aéroports (messages METAR et TAF).

Les stations disponibles sont représentées par des disques jaunes et rouges sur la carte.

Passer la souris dessus pour voir le nom de la station.

Cliquer dessus pour voir les observations et prévisions météorologiques.

Pour changer de carte: cliquez sur les boutons verts avec une croix noire pour zoomer, sur le bouton vert avec un tiret pour effectuer un zoom arrière, ou sur les flèches vertes pour les cartes adjacentes.


METAR-TAF: